Flight Track Log - Related Links

Times and Time Zones

All times are in EDT time to prevent confusion due to time zone crossing. See the N960DL flight status page for this flight to view local times or setup timezone preferences in your user account.

Time Position Orientation Groundspeed Altitude Reporting Facility
EDT Latitude Longitude Course Direction KTS MPH feet Rate Location/Type
Wed 01:07:56 PM 33.6333 -84.3667 53° Northeast 197 227 2,400  Level Atlanta TRACON
Wed 01:08:50 PM 33.6333 -84.2833 90° East 261 300 4,400 2,600 Climbing Atlanta TRACON
Wed 01:09:56 PM 33.6333 -84.2000 90° East 273 314 7,600 2,351 Climbing Atlanta TRACON
Wed 01:10:00 PM 33.7349 -84.0031 54° Northeast  Level FlightAware Approximate
Wed 01:11:00 PM 33.8053 -83.8858 54° Northeast  Level FlightAware Approximate
Wed 01:11:41 PM 33.6731 -84.0539 72° East 287 330 11,100  Level Atlanta Center
Wed 01:12:00 PM 33.8770 -83.7695 48° Northeast  Level FlightAware Approximate
Wed 01:12:41 PM 33.7419 -83.9664 47° Northeast 331 381 12,400  Level Atlanta Center
Wed 01:13:00 PM 33.9534 -83.6578 53° Northeast  Level FlightAware Approximate
Wed 01:13:41 PM 33.8172 -83.8689 47° Northeast 380 437 14,900  Level Atlanta Center
Wed 01:14:41 PM 33.8942 -83.7661 48° Northeast 404 465 17,100 2,000 Climbing Atlanta Center
Wed 01:15:41 PM 33.9772 -83.6456 50° Northeast 415 478 18,900 1,800 Climbing Atlanta Center
Wed 01:16:41 PM 34.0519 -83.5222 54° Northeast 433 498 20,700 1,750 Climbing Atlanta Center
Wed 01:17:41 PM 34.1308 -83.4014 52° Northeast 449 517 22,400 1,200 Climbing Atlanta Center
Wed 01:18:41 PM 34.2094 -83.2778 52° Northeast 459 528 23,100 1,100 Climbing Atlanta Center
Wed 01:19:41 PM 34.2897 -83.1489 53° Northeast 464 534 24,600 1,600 Climbing Atlanta Center
Wed 01:20:41 PM 34.3661 -83.0222 54° Northeast 464 534 26,300 1,600 Climbing Atlanta Center
Wed 01:21:41 PM 34.4483 -82.8928 52° Northeast 470 541 27,800 1,550 Climbing Atlanta Center
Wed 01:22:41 PM 34.5264 -82.7656 53° Northeast 475 547 29,400 1,450 Climbing Atlanta Center
Wed 01:23:41 PM 34.6022 -82.6331 55° Northeast 475 547 30,700 1,150 Climbing Atlanta Center
Wed 01:24:41 PM 34.6800 -82.5081 53° Northeast 475 547 31,700 1,000 Climbing Atlanta Center
Wed 01:25:41 PM 34.7578 -82.3803 53° Northeast 470 541 32,700 650 Climbing Atlanta Center
Wed 01:26:41 PM 34.8353 -82.2572 52° Northeast 465 535 33,000 150 Climbing Atlanta Center
Wed 01:27:41 PM 34.9106 -82.1264 55° Northeast 465 535 33,000  Level Atlanta Center
Wed 01:28:41 PM 34.9817 -82.0133 52° Northeast 465 535 33,000  Level Atlanta Center
Wed 01:29:41 PM 35.0589 -81.8819 54° Northeast 470 541 33,000  Level Atlanta Center
Wed 01:30:41 PM 35.1294 -81.7481 57° Northeast 475 547 33,000  Level Atlanta Center
Wed 01:31:41 PM 35.2019 -81.6139 56° Northeast 470 541 33,000  Level Atlanta Center
Wed 01:32:41 PM 35.2700 -81.4797 58° Northeast 465 535 33,000  Level Atlanta Center
Wed 01:33:41 PM 35.3383 -81.3478 58° Northeast 465 535 33,000  Level Atlanta Center
Wed 01:34:41 PM 35.4083 -81.2128 58° Northeast 459 528 33,000  Level Atlanta Center
Wed 01:35:41 PM 35.4761 -81.0781 58° Northeast 464 534 33,000  Level Atlanta Center
Wed 01:36:41 PM 35.5478 -80.9425 57° Northeast 469 540 33,000  Level Atlanta Center
Wed 01:37:41 PM 35.6153 -80.8122 57° Northeast 458 527 33,000  Level Atlanta Center
Wed 01:38:41 PM 35.6847 -80.6792 57° Northeast 458 527 33,000  Level Atlanta Center
Wed 01:40:14 PM 35.7983 -80.4578 58° Northeast 450 518 33,000  Level Washington Center
Wed 01:41:14 PM 35.8594 -80.3386 58° Northeast 450 518 33,000  Level Washington Center
Wed 01:42:14 PM 35.9272 -80.2042 58° Northeast 456 525 33,000  Level Washington Center
Wed 01:43:14 PM 35.9969 -80.0719 57° Northeast 456 525 33,000  Level Washington Center
Wed 01:44:14 PM 36.0667 -79.9397 57° Northeast 456 525 33,000  Level Washington Center
Wed 01:45:14 PM 36.1400 -79.8128 54° Northeast 461 531 33,000  Level Washington Center
Wed 01:46:14 PM 36.2225 -79.6653 55° Northeast 466 536 33,000  Level Washington Center
Wed 01:47:14 PM 36.2975 -79.5378 54° Northeast 466 536 33,000  Level Washington Center
Wed 01:48:14 PM 36.3686 -79.4044 56° Northeast 466 536 33,000  Level Washington Center
Wed 01:49:14 PM 36.4350 -79.2839 56° Northeast 466 536 33,000  Level Washington Center
Wed 01:50:14 PM 36.5167 -79.1378 55° Northeast 460 529 33,000  Level Washington Center
Wed 01:51:15 PM 36.5847 -79.0272 53° Northeast 460 529 33,000  Level Washington Center
Wed 01:52:14 PM 36.6592 -78.8931 55° Northeast 466 536 33,000  Level Washington Center
Wed 01:53:14 PM 36.7297 -78.7589 57° Northeast 466 536 33,000  Level Washington Center
Wed 01:54:14 PM 36.8019 -78.6242 56° Northeast 466 536 33,000  Level Washington Center
Wed 01:55:14 PM 36.8783 -78.4975 53° Northeast 460 529 33,000  Level Washington Center
Wed 01:56:14 PM 36.9831 -78.3817 41° Northeast 447 514 33,000  Level Washington Center
Wed 01:57:14 PM 37.0753 -78.2758 42° Northeast 447 514 33,000  Level Washington Center
Wed 01:58:14 PM 37.1694 -78.1697 42° Northeast 447 514 33,000  Level Washington Center
Wed 01:59:14 PM 37.2506 -78.0783 42° Northeast 447 514 33,000  Level Washington Center
Wed 02:00:15 PM 37.3444 -77.9744 41° Northeast 447 514 33,000  Level Washington Center
Wed 02:01:14 PM 37.4361 -77.8700 42° Northeast 447 514 33,000  Level Washington Center
Wed 02:02:14 PM 37.5281 -77.7628 43° Northeast 447 514 33,000  Level Washington Center
Wed 02:03:15 PM 37.6217 -77.6578 42° Northeast 447 514 33,000  Level Washington Center
Wed 02:04:14 PM 37.7150 -77.5528 42° Northeast 447 514 33,000  Level Washington Center
Wed 02:05:15 PM 37.8086 -77.4447 42° Northeast 447 514 33,000  Level Washington Center
Wed 02:06:14 PM 37.9019 -77.3367 42° Northeast 447 514 33,000  Level Washington Center
Wed 02:07:14 PM 37.9953 -77.2281 43° Northeast 447 514 33,000  Level Washington Center
Wed 02:08:14 PM 38.0883 -77.1192 43° Northeast 447 514 33,000  Level Washington Center
Wed 02:09:14 PM 38.1836 -77.0103 42° Northeast 447 514 33,000  Level Washington Center
Wed 02:10:14 PM 38.2744 -76.9008 43° Northeast 447 514 33,000  Level Washington Center
Wed 02:11:14 PM 38.3675 -76.7886 43° Northeast 447 514 33,000  Level Washington Center
Wed 02:12:15 PM 38.4603 -76.6789 43° Northeast 447 514 33,000  Level Washington Center
Wed 02:13:15 PM 38.5569 -76.5661 42° Northeast 452 520 33,000  Level Washington Center
Wed 02:14:14 PM 38.6497 -76.4556 43° Northeast 452 520 33,000  Level Washington Center
Wed 02:15:15 PM 38.7400 -76.3394 45° Northeast 452 520 33,000  Level Washington Center
Wed 02:16:14 PM 38.8344 -76.2314 42° Northeast 452 520 33,000  Level Washington Center
Wed 02:17:14 PM 38.9308 -76.1225 41° Northeast 452 520 33,000  Level Washington Center
Wed 02:18:15 PM 39.0231 -76.0111 43° Northeast 452 520 33,000  Level Washington Center
Wed 02:19:14 PM 39.1150 -75.8992 43° Northeast 447 514 33,000 -655 Level Washington Center
Wed 02:20:14 PM 39.2028 -75.7897 44° Northeast 447 514 31,700 -1,438 Descending Washington Center
Wed 02:21:15 PM 39.2947 -75.6800 43° Northeast 447 514 30,100 -1,289 Descending Washington Center
Wed 02:22:15 PM 39.3864 -75.5619 45° Northeast 453 521 29,100 -908 Descending Washington Center
Wed 02:23:14 PM 39.4800 -75.4464 44° Northeast 453 521 28,300 -700 Descending Washington Center
Wed 02:24:15 PM 39.5717 -75.3331 44° Northeast 453 521 27,700 -650 Descending Washington Center
Wed 02:25:14 PM 39.6567 -75.2278 44° Northeast 441 507 27,000 -275 Descending Washington Center
Wed 02:26:48 PM 39.7853 -75.0661 44° Northeast 434 499 27,000  Level New York Center
Wed 02:27:46 PM 39.8681 -74.9631 44° Northeast 417 480 27,000  Level New York Center
Wed 02:28:48 PM 39.9489 -74.8569 45° Northeast 412 474 27,000  Level New York Center
Wed 02:29:46 PM 40.0322 -74.7369 48° Northeast 407 468 27,000  Level New York Center
Wed 02:30:48 PM 40.1089 -74.6275 47° Northeast 412 474 27,000  Level New York Center
Wed 02:31:48 PM 40.1897 -74.5097 48° Northeast 421 484 27,000  Level New York Center
Wed 02:32:48 PM 40.2628 -74.3722 55° Northeast 434 499 27,000  Level New York Center
Wed 02:35:50 PM 40.4664 -73.9758 56° Northeast 439 505 27,000  Level Boston Center
Wed 02:36:49 PM 40.5350 -73.8381 57° Northeast 439 505 27,000 -756 Level Boston Center
Wed 02:37:49 PM 40.6033 -73.7003 57° Northeast 447 514 25,500 -1,934 Descending Boston Center
Wed 02:38:50 PM 40.6714 -73.5539 58° Northeast 442 509 23,100 -2,311 Descending Boston Center
Wed 02:39:51 PM 40.7331 -73.4233 58° Northeast 435 501 20,800 -1,983 Descending Boston Center
Wed 02:40:51 PM 40.7903 -73.3144 55° Northeast 418 481 19,100 -1,271 Descending Boston Center
Wed 02:41:49 PM 40.8744 -73.2169 41° Northeast 400 460 18,300 -1,008 Descending Boston Center
Wed 02:42:50 PM 40.9706 -73.1742 19° North 368 423 17,100 -1,131 Descending Boston Center
Wed 02:43:51 PM 41.0686 -73.1228 22° Northeast 362 417 16,000 -793 Descending Boston Center
Wed 02:44:51 PM 41.1400 -73.0217 47° Northeast 356 410 15,500 -1,223 Descending Boston Center
Wed 02:45:34 PM 41.1886 -72.9339 54° Northeast 378 435 13,900 -2,136 Descending Boston Center
Wed 02:45:50 PM 41.2011 -72.9092 56° Northeast 356 410 13,400 -2,024 Descending Boston Center
Wed 02:46:57 PM 41.2703 -72.7742 56° Northeast 372 428 11,100 -1,140 Descending Boston Center
Wed 02:47:51 PM 41.3414 -72.7083 35° Northeast 354 407 11,100 -313 Level Boston Center
Wed 02:48:52 PM 41.4247 -72.7308 349° North 304 350 10,500 -836 Descending Boston Center
Wed 02:49:53 PM 41.4997 -72.7589 344° North 279 321 9,400 -1,406 Descending Boston Center
Wed 02:51:00 PM 41.5767 -72.7842 346° North 260 299 7,500 -1,701 Descending Boston Center
Wed 02:52:00 PM 41.6453 -72.8094 345° North 253 291 5,800 -1,395 Descending Boston Center
Wed 02:53:09 PM 41.7161 -72.8350 345° North 246 283 4,500 -1,169 Descending Boston Center
Wed 02:53:58 PM 41.7642 -72.8297 North 214 246 3,500 -992 Descending Boston Center
Wed 02:55:10 PM 41.8331 -72.8050 15° North 198 228 2,500 -833 Descending Boston Center

Login

Don't have an account? Register now (free) for customized features, flight alerts, and more!